首页
METAR-TAF:

METAR-TAF

机场 :

英迪拉·甘地国际机场

新德里, 印度

纬度: 28-34N, 经度: 077-07E, 海拔: 220米

当前天气观测

该预报发布于30分钟前的12:30 UTC
风速4节,风向
温度 23°C
湿度 50%
气压 1013 hPa
能見度: 3000

METAR: VIDP 181230Z 09004KT 3000 HZ NSC 23/12 Q1013 NOSIG

时间: 18:30 (13:00 UTC)

预报

该预报发布于2小时和0分钟前的11:00 UTC
预报有效从18日的 12点(UTC)到 19日的 18点(UTC)
风速5节,风向东转东南
能見度: 3500
成为
从 19日的 00点(UTC)到 19日的 02点(UTC)
能見度: 0800
少量云层高于10000英尺
浅雾
成为
从 19日的 06点(UTC)到 19日的 08点(UTC)
风速10节,风向南转南东
能見度: 3500
少量云层高于4000英尺
散云层高于10000英尺
霾, 烟

TAF: VIDP 181100Z 1812/1918 12005KT 3500 HZ NSC BECMG 1900/1902 0800 MIFG FEW100 BECMG 1906/1908 15010KT 3500 HZ FU FEW040 SCT100

超过4000个机场的气象观测和天气预报(METAR&TAF报告)。

可查询的气象台以黄色和红色小点在地图上表示。

将鼠标移到小点上方,可查看气象台名称。

然后点击查看天气观测和预报。

如需切换地图:点击带黑十字的绿色按钮放大地图;点击带横线的绿色按钮缩小地图;或者点击绿色箭头查看邻近地区的地图。


METAR-TAF: